Time;durP1;ratioP1;P1;durP2;ratioP2;P2;SDS_P1;SDS_P2;PMS_P1;PMS_P2;Temp;Humidity;BMP_temperature;BMP_pressure;BME280_temperature;BME280_humidity;BME280_pressure;Samples;Min_cycle;Max_cycle;Signal;HPM_P1;HPM_P2
2023/03/06 00:01:05;;;;;;;7.10;5.47;;;0.60;99.90;;;;;;5021059;28;20472;-80
2023/03/06 00:03:33;;;;;;;9.20;6.80;;;0.70;99.90;;;;;;5017492;28;20208;-81
2023/03/06 00:06:00;;;;;;;13.10;6.80;;;0.70;99.90;;;;;;5025544;28;20204;-81
2023/03/06 00:08:29;;;;;;;9.93;7.40;;;0.60;99.90;;;;;;5021079;28;20215;-81
2023/03/06 00:10:56;;;;;;;7.28;5.88;;;0.40;99.90;;;;;;5021475;28;20220;-77
2023/03/06 00:13:25;;;;;;;8.95;6.75;;;0.40;99.90;;;;;;5017600;28;20235;-81
2023/03/06 00:15:52;;;;;;;15.48;6.85;;;0.50;99.90;;;;;;5024590;28;20485;-82
2023/03/06 00:18:19;;;;;;;8.85;6.00;;;0.50;99.90;;;;;;5018158;28;20201;-81
2023/03/06 00:20:46;;;;;;;10.15;6.82;;;0.50;99.90;;;;;;5022728;28;20200;-83
2023/03/06 00:23:13;;;;;;;13.38;7.50;;;0.30;99.90;;;;;;5029824;28;20208;-81
2023/03/06 00:25:44;;;;;;;9.80;6.72;;;0.30;99.90;;;;;;5022389;28;20424;-81
2023/03/06 00:28:13;;;;;;;11.13;7.05;;;0.30;99.90;;;;;;5020939;28;20220;-80
2023/03/06 00:30:41;;;;;;;9.50;6.55;;;0.40;99.90;;;;;;5019986;28;20345;-80
2023/03/06 00:33:09;;;;;;;11.88;7.78;;;0.40;99.90;;;;;;5016118;28;20255;-81
2023/03/06 00:35:38;;;;;;;10.40;8.60;;;0.40;99.90;;;;;;5031842;28;20516;-81
2023/03/06 00:38:04;;;;;;;9.98;7.18;;;0.40;99.90;;;;;;5009943;28;20201;-80
2023/03/06 00:40:32;;;;;;;14.90;7.15;;;0.50;99.90;;;;;;5028762;28;20201;-82
2023/03/06 00:42:59;;;;;;;11.95;7.82;;;0.50;99.90;;;;;;5014389;28;20227;-82
2023/03/06 00:45:26;;;;;;;11.30;8.68;;;0.60;99.90;;;;;;5024386;28;20233;-80
2023/03/06 00:47:53;;;;;;;12.73;8.27;;;0.80;99.90;;;;;;5015987;28;20469;-81
2023/03/06 00:50:20;;;;;;;14.13;7.15;;;1.00;99.90;;;;;;5020203;28;20204;-81
2023/03/06 00:52:47;;;;;;;9.23;7.68;;;1.00;99.90;;;;;;5019084;28;20209;-81
2023/03/06 00:55:14;;;;;;;12.25;9.15;;;1.00;99.90;;;;;;5027958;28;20680;-80
2023/03/06 00:57:42;;;;;;;9.80;7.47;;;0.90;99.90;;;;;;5022516;28;20255;-80
2023/03/06 01:00:11;;;;;;;10.43;7.57;;;0.90;99.90;;;;;;5023949;28;20717;-79
2023/03/06 01:02:38;;;;;;;9.93;8.55;;;0.90;99.90;;;;;;5031781;28;20210;-79
2023/03/06 01:05:06;;;;;;;14.98;8.55;;;0.90;99.90;;;;;;5031819;28;20233;-80
2023/03/06 01:07:35;;;;;;;13.27;7.65;;;0.80;99.90;;;;;;5031908;28;20444;-80
2023/03/06 01:10:04;;;;;;;9.98;6.68;;;0.90;99.90;;;;;;5019663;28;20208;-81
2023/03/06 01:12:31;;;;;;;9.93;7.40;;;0.80;99.90;;;;;;5032500;28;20295;-80
2023/03/06 01:14:58;;;;;;;13.18;9.23;;;0.80;99.90;;;;;;5035801;28;20232;-80
2023/03/06 01:17:25;;;;;;;13.05;7.80;;;0.80;99.90;;;;;;5032525;28;20208;-80
2023/03/06 01:19:52;;;;;;;14.82;7.45;;;0.80;99.90;;;;;;5029042;28;20266;-80
2023/03/06 01:22:19;;;;;;;18.02;8.85;;;0.80;99.90;;;;;;5029528;28;20457;-80
2023/03/06 01:24:46;;;;;;;9.50;7.75;;;1.10;99.90;;;;;;5031154;28;20277;-80
2023/03/06 01:27:13;;;;;;;10.10;6.45;;;1.30;99.90;;;;;;5024145;28;20209;-81
2023/03/06 01:29:40;;;;;;;9.65;7.65;;;1.10;99.90;;;;;;5030866;28;20204;-81
2023/03/06 01:32:09;;;;;;;12.07;7.47;;;1.00;99.90;;;;;;5024130;28;20205;-80
2023/03/06 01:34:35;;;;;;;12.73;9.93;;;1.00;99.90;;;;;;5030778;28;20235;-80
2023/03/06 01:37:02;;;;;;;11.10;8.35;;;1.40;99.90;;;;;;5028645;28;20206;-80
2023/03/06 01:39:30;;;;;;;12.75;7.82;;;0.90;99.90;;;;;;5031006;28;20684;-80
2023/03/06 01:41:57;;;;;;;12.13;9.25;;;1.00;99.90;;;;;;5029582;28;20212;-81
2023/03/06 01:44:24;;;;;;;15.45;8.07;;;1.20;99.90;;;;;;5028911;28;20221;-81
2023/03/06 01:46:51;;;;;;;10.25;8.38;;;1.50;99.90;;;;;;5031165;28;20736;-82
2023/03/06 01:49:27;;;;;;;14.02;8.70;;;1.80;99.90;;;;;;5030814;28;20231;-80
2023/03/06 01:52:02;;;;;;;16.15;8.80;;;2.00;99.90;;;;;;5031490;28;20578;-80
2023/03/06 01:54:53;;;;;;;9.70;7.78;;;2.10;99.90;;;;;;5025025;28;20551;-82
2023/03/06 01:57:24;;;;;;;11.50;9.23;;;2.10;99.90;;;;;;5028706;28;20209;-80
2023/03/06 01:59:59;;;;;;;15.48;9.93;;;2.00;99.90;;;;;;5027540;28;20570;-79
2023/03/06 02:02:25;;;;;;;14.90;12.23;;;1.90;99.90;;;;;;5015183;28;20205;-81
2023/03/06 02:04:52;;;;;;;19.58;12.55;;;1.60;99.90;;;;;;5029715;28;20296;-80
2023/03/06 02:07:20;;;;;;;17.88;12.27;;;1.60;99.90;;;;;;5021593;28;20263;-79
2023/03/06 02:09:47;;;;;;;18.92;13.15;;;1.30;99.90;;;;;;5033225;28;20577;-80
2023/03/06 02:12:18;;;;;;;15.45;11.35;;;1.10;99.90;;;;;;5019340;28;20532;-81
2023/03/06 02:14:46;;;;;;;23.17;13.43;;;1.10;99.90;;;;;;5018290;28;20594;-80
2023/03/06 02:17:16;;;;;;;17.65;10.98;;;1.10;99.90;;;;;;5026899;28;20424;-80
2023/03/06 02:19:52;;;;;;;16.10;11.13;;;1.20;99.90;;;;;;5022544;28;20209;-80
2023/03/06 02:22:20;;;;;;;19.80;12.68;;;1.40;99.90;;;;;;5033048;28;20196;-79
2023/03/06 02:25:18;;;;;;;16.38;11.57;;;1.60;99.90;;;;;;5024911;28;20267;-78
2023/03/06 02:27:46;;;;;;;17.58;11.43;;;1.60;99.90;;;;;;5023315;28;20204;-78
2023/03/06 02:30:15;;;;;;;15.65;10.57;;;1.80;99.90;;;;;;5027971;28;20599;-80
2023/03/06 02:32:42;;;;;;;17.30;10.85;;;1.50;99.90;;;;;;5028247;28;20228;-81
2023/03/06 02:35:19;;;;;;;18.92;13.05;;;1.40;99.90;;;;;;5027107;28;20205;-80
2023/03/06 02:37:46;;;;;;;20.27;12.48;;;1.30;99.90;;;;;;5013971;28;20223;-78
2023/03/06 02:40:14;;;;;;;28.92;14.57;;;1.40;99.90;;;;;;5020030;28;20212;-78
2023/03/06 02:42:49;;;;;;;19.33;11.88;;;1.50;99.90;;;;;;5031135;28;20252;-80
2023/03/06 02:45:29;;;;;;;30.70;17.13;;;1.40;99.90;;;;;;5028600;28;20241;-80
2023/03/06 02:47:56;;;;;;;22.00;12.15;;;1.40;99.90;;;;;;5026209;28;20206;-80
2023/03/06 02:50:23;;;;;;;25.40;16.13;;;1.50;99.90;;;;;;5021909;28;20756;-79
2023/03/06 02:52:50;;;;;;;24.77;15.88;;;1.50;99.90;;;;;;5024917;28;20212;-80
2023/03/06 02:55:17;;;;;;;15.27;11.57;;;1.40;99.90;;;;;;5019060;28;20213;-80
2023/03/06 02:57:44;;;;;;;27.13;15.80;;;1.20;99.90;;;;;;5021312;28;20204;-80
2023/03/06 03:00:13;;;;;;;16.85;11.75;;;1.20;99.90;;;;;;5025093;28;20209;-79
2023/03/06 03:02:40;;;;;;;16.60;11.10;;;1.10;99.90;;;;;;5022927;28;20227;-81
2023/03/06 03:05:07;;;;;;;15.52;10.73;;;1.00;99.90;;;;;;5028817;28;20248;-81
2023/03/06 03:07:35;;;;;;;20.63;13.05;;;1.10;99.90;;;;;;5028700;28;20209;-79
2023/03/06 03:10:02;;;;;;;20.52;12.05;;;1.10;99.90;;;;;;5029717;28;20497;-80
2023/03/06 03:12:29;;;;;;;23.83;12.27;;;0.90;99.90;;;;;;5028400;28;20196;-80
2023/03/06 03:14:56;;;;;;;27.10;15.38;;;1.10;99.90;;;;;;5030394;28;20256;-80
2023/03/06 03:17:23;;;;;;;18.42;11.52;;;1.10;99.90;;;;;;5011801;28;20209;-80
2023/03/06 03:19:50;;;;;;;20.65;12.27;;;1.10;99.90;;;;;;5021786;28;20400;-80
2023/03/06 03:22:18;;;;;;;18.17;12.80;;;1.20;99.90;;;;;;5015935;28;20205;-80
2023/03/06 03:24:46;;;;;;;31.10;18.52;;;1.10;99.90;;;;;;5024571;28;20283;-80
2023/03/06 03:27:13;;;;;;;16.38;9.98;;;1.10;99.90;;;;;;5028259;28;20209;-79
2023/03/06 03:29:41;;;;;;;23.38;14.30;;;1.10;99.90;;;;;;5024348;28;20250;-79
2023/03/06 03:32:08;;;;;;;18.40;13.82;;;1.30;99.90;;;;;;5018530;28;20209;-80
2023/03/06 03:34:35;;;;;;;20.65;13.02;;;1.40;99.90;;;;;;5028268;28;20208;-80
2023/03/06 03:37:02;;;;;;;18.38;11.48;;;1.40;99.90;;;;;;5023447;28;20239;-80
2023/03/06 03:39:30;;;;;;;17.40;11.65;;;1.30;99.90;;;;;;5027840;28;20242;-80
2023/03/06 03:41:56;;;;;;;16.98;12.60;;;1.30;99.90;;;;;;5024982;28;20206;-80
2023/03/06 03:44:24;;;;;;;17.00;12.90;;;1.10;99.90;;;;;;5022136;28;20231;-80
2023/03/06 03:46:51;;;;;;;20.25;13.00;;;1.10;99.90;;;;;;5035664;28;20425;-80
2023/03/06 03:49:18;;;;;;;19.33;12.57;;;1.10;99.90;;;;;;5021690;28;20598;-81
2023/03/06 03:51:45;;;;;;;23.92;11.48;;;1.20;99.90;;;;;;5018000;28;20205;-79
2023/03/06 03:54:12;;;;;;;20.92;13.70;;;1.10;99.90;;;;;;5019165;28;20220;-80
2023/03/06 03:56:40;;;;;;;18.80;11.63;;;1.10;99.90;;;;;;5022777;28;20262;-81
2023/03/06 03:59:08;;;;;;;21.85;15.02;;;1.10;99.90;;;;;;5019697;28;20267;-81
2023/03/06 04:01:35;;;;;;;20.05;13.60;;;1.10;99.90;;;;;;5017918;28;20263;-81
2023/03/06 04:04:05;;;;;;;24.27;16.55;;;1.00;99.90;;;;;;5028309;28;20211;-81
2023/03/06 04:06:32;;;;;;;21.92;13.40;;;1.00;99.90;;;;;;5015363;28;20228;-79
2023/03/06 04:08:59;;;;;;;19.88;13.63;;;1.10;99.90;;;;;;5023933;28;20211;-81
2023/03/06 04:11:26;;;;;;;18.27;12.05;;;1.20;99.90;;;;;;5021420;28;20212;-81
2023/03/06 04:13:53;;;;;;;26.77;14.88;;;1.00;99.90;;;;;;5016300;28;20196;-81
2023/03/06 04:16:20;;;;;;;22.38;14.40;;;1.00;99.90;;;;;;5016569;28;20259;-80
2023/03/06 04:18:46;;;;;;;19.75;12.98;;;1.10;99.90;;;;;;5013589;28;20205;-79
2023/03/06 04:21:14;;;;;;;21.70;15.32;;;1.00;99.90;;;;;;5026840;28;20250;-81
2023/03/06 04:23:40;;;;;;;17.33;11.70;;;1.10;99.90;;;;;;5016351;28;20481;-81
2023/03/06 04:26:08;;;;;;;23.88;12.48;;;1.00;99.90;;;;;;5018839;28;20548;-80
2023/03/06 04:28:35;;;;;;;25.83;17.00;;;1.10;99.90;;;;;;5035723;28;20247;-80
2023/03/06 04:31:02;;;;;;;24.40;14.23;;;1.10;99.90;;;;;;5039180;28;20219;-78
2023/03/06 04:33:29;;;;;;;25.95;17.15;;;1.00;99.90;;;;;;5035170;28;20188;-80
2023/03/06 04:35:56;;;;;;;17.83;12.70;;;1.00;99.90;;;;;;5035374;28;20185;-80
2023/03/06 04:38:23;;;;;;;20.63;13.30;;;1.10;99.90;;;;;;5032257;28;20247;-79
2023/03/06 04:40:50;;;;;;;24.95;13.77;;;1.20;99.90;;;;;;5026235;28;20242;-80
2023/03/06 04:43:17;;;;;;;27.83;16.67;;;1.20;99.90;;;;;;5024489;28;20446;-81
2023/03/06 04:45:44;;;;;;;26.17;13.77;;;1.10;99.90;;;;;;5022452;28;20267;-81
2023/03/06 04:48:14;;;;;;;24.88;13.55;;;1.10;99.90;;;;;;5029533;28;20220;-81
2023/03/06 04:50:41;;;;;;;20.08;14.07;;;1.20;99.90;;;;;;5028818;28;20201;-81
2023/03/06 04:53:08;;;;;;;24.63;14.60;;;1.30;99.90;;;;;;5018074;28;20207;-81
2023/03/06 04:55:35;;;;;;;24.77;16.05;;;1.30;99.90;;;;;;5027270;28;20242;-81
2023/03/06 04:58:02;;;;;;;23.35;14.40;;;1.20;99.90;;;;;;5030783;28;20201;-81
2023/03/06 05:00:30;;;;;;;25.17;16.52;;;1.20;99.90;;;;;;5020702;28;20209;-81
2023/03/06 05:02:59;;;;;;;24.13;14.98;;;1.40;99.90;;;;;;5019737;28;20213;-80
2023/03/06 05:05:27;;;;;;;20.05;14.05;;;1.50;99.90;;;;;;5019443;28;20393;-81
2023/03/06 05:07:54;;;;;;;21.90;15.27;;;1.50;99.90;;;;;;5017711;28;20517;-81
2023/03/06 05:10:22;;;;;;;22.00;13.10;;;1.40;99.90;;;;;;5020854;28;20217;-81
2023/03/06 05:12:49;;;;;;;23.67;13.88;;;1.60;99.90;;;;;;5020056;28;20205;-79
2023/03/06 05:15:16;;;;;;;20.15;13.48;;;1.70;99.90;;;;;;5021345;28;20436;-82
2023/03/06 05:17:46;;;;;;;20.17;13.63;;;1.70;99.90;;;;;;5028121;28;20212;-81
2023/03/06 05:20:15;;;;;;;22.38;14.43;;;1.70;99.90;;;;;;5014733;28;20313;-83
2023/03/06 05:22:43;;;;;;;22.50;13.65;;;1.80;99.90;;;;;;5017889;28;20244;-82
2023/03/06 05:25:10;;;;;;;23.35;15.48;;;1.70;99.90;;;;;;5021220;28;20300;-82
2023/03/06 05:27:40;;;;;;;18.75;13.30;;;1.60;99.90;;;;;;5019737;28;20590;-81
2023/03/06 05:30:09;;;;;;;19.58;14.82;;;1.60;99.90;;;;;;5029200;28;20229;-82
2023/03/06 05:32:36;;;;;;;20.55;12.55;;;1.80;99.90;;;;;;5031188;28;20209;-83
2023/03/06 05:35:04;;;;;;;19.65;14.48;;;1.90;99.90;;;;;;5029672;28;20236;-79
2023/03/06 05:37:31;;;;;;;21.50;16.65;;;1.80;99.90;;;;;;5015420;28;20223;-81
2023/03/06 05:39:58;;;;;;;19.15;13.20;;;1.90;99.90;;;;;;5023229;28;20239;-81
2023/03/06 05:42:27;;;;;;;19.50;13.27;;;1.80;99.90;;;;;;5019523;28;20517;-82
2023/03/06 05:44:54;;;;;;;18.67;12.93;;;1.80;99.90;;;;;;5017995;28;20211;-82
2023/03/06 05:47:21;;;;;;;21.65;14.65;;;1.80;99.90;;;;;;5013261;28;20411;-81
2023/03/06 05:49:48;;;;;;;19.23;13.32;;;1.90;99.90;;;;;;5013210;28;20210;-82
2023/03/06 05:52:16;;;;;;;19.17;13.77;;;2.00;99.90;;;;;;5020797;28;20844;-80
2023/03/06 05:54:43;;;;;;;23.92;14.93;;;1.90;99.90;;;;;;5031021;28;20205;-82
2023/03/06 05:57:10;;;;;;;20.77;14.15;;;1.90;99.90;;;;;;5029797;28;20209;-81
2023/03/06 05:59:37;;;;;;;21.13;14.30;;;2.00;99.90;;;;;;5017491;28;20261;-80
2023/03/06 06:02:04;;;;;;;19.08;12.32;;;2.00;99.90;;;;;;5026779;28;20216;-84
2023/03/06 06:04:31;;;;;;;18.75;13.48;;;2.10;99.90;;;;;;5023164;28;20228;-84
2023/03/06 06:06:59;;;;;;;18.67;14.27;;;2.10;99.90;;;;;;5020299;28;20241;-81
2023/03/06 06:09:27;;;;;;;19.33;15.88;;;2.20;99.90;;;;;;5014544;28;20199;-82
2023/03/06 06:12:00;;;;;;;22.15;13.75;;;2.30;99.90;;;;;;5015696;28;20206;-83
2023/03/06 06:14:28;;;;;;;16.05;12.32;;;2.30;99.90;;;;;;5021619;28;20245;-81
2023/03/06 06:16:56;;;;;;;19.67;13.60;;;2.40;99.90;;;;;;5024258;28;20220;-82
2023/03/06 06:19:23;;;;;;;19.08;12.73;;;2.40;99.90;;;;;;5021171;28;20198;-80
2023/03/06 06:21:52;;;;;;;17.48;11.98;;;2.50;99.90;;;;;;5018623;28;20253;-82
2023/03/06 06:24:22;;;;;;;17.13;11.63;;;2.50;99.90;;;;;;5028214;28;20257;-83
2023/03/06 06:26:51;;;;;;;17.88;12.05;;;2.50;99.90;;;;;;5026361;28;20234;-83
2023/03/06 06:29:19;;;;;;;16.48;11.15;;;2.70;99.90;;;;;;5029013;28;20197;-83
2023/03/06 06:31:46;;;;;;;13.40;10.48;;;2.80;99.90;;;;;;5032167;28;20222;-83
2023/03/06 06:34:13;;;;;;;14.60;10.63;;;2.80;99.90;;;;;;5025850;28;20252;-80
2023/03/06 06:36:40;;;;;;;13.57;9.10;;;3.00;99.90;;;;;;5015147;28;20211;-84
2023/03/06 06:39:08;;;;;;;17.42;10.60;;;3.10;99.90;;;;;;5019528;28;20437;-84
2023/03/06 06:41:37;;;;;;;16.30;10.50;;;3.30;99.90;;;;;;5011532;28;20262;-83
2023/03/06 06:44:23;;;;;;;12.27;9.57;;;3.30;99.90;;;;;;5020035;28;20211;-83
2023/03/06 06:46:51;;;;;;;11.60;8.77;;;3.40;99.90;;;;;;5018604;28;20249;-83
2023/03/06 06:49:38;;;;;;;10.75;9.15;;;3.40;99.90;;;;;;5017951;28;20526;-83
2023/03/06 06:52:06;;;;;;;12.07;8.10;;;3.20;99.90;;;;;;5026881;28;20211;-82
2023/03/06 06:54:33;;;;;;;12.73;9.77;;;3.20;99.90;;;;;;5015546;28;20206;-83
2023/03/06 06:57:00;;;;;;;15.43;8.85;;;3.20;99.90;;;;;;5033361;28;20275;-84
2023/03/06 06:59:27;;;;;;;9.80;7.78;;;3.30;99.90;;;;;;5025850;28;20204;-84
2023/03/06 07:01:55;;;;;;;11.93;8.00;;;3.60;99.90;;;;;;5027078;28;20544;-82
2023/03/06 07:04:22;;;;;;;10.35;7.75;;;3.80;99.90;;;;;;5032263;28;20216;-83
2023/03/06 07:06:49;;;;;;;15.40;8.05;;;4.10;99.90;;;;;;5041140;28;20231;-84
2023/03/06 07:09:23;;;;;;;13.57;8.68;;;4.20;99.90;;;;;;5034097;28;20213;-84
2023/03/06 07:11:51;;;;;;;8.73;7.53;;;4.30;99.90;;;;;;5003551;28;20211;-83
2023/03/06 07:14:17;;;;;;;11.27;8.63;;;4.30;99.90;;;;;;5027378;28;20226;-82
2023/03/06 07:16:45;;;;;;;11.55;9.48;;;4.40;99.90;;;;;;5026491;28;20302;-84
2023/03/06 07:19:11;;;;;;;11.05;7.22;;;4.70;99.90;;;;;;5025025;28;20211;-82
2023/03/06 07:21:41;;;;;;;11.30;8.02;;;4.80;99.90;;;;;;5023351;28;20288;-83
2023/03/06 07:24:08;;;;;;;13.65;9.48;;;5.10;99.90;;;;;;5033769;28;20269;-84
2023/03/06 07:26:36;;;;;;;15.90;10.40;;;5.10;99.90;;;;;;5025700;28;20247;-83
2023/03/06 07:29:03;;;;;;;16.95;11.75;;;4.80;99.90;;;;;;5019049;28;20209;-82
2023/03/06 07:31:30;;;;;;;15.65;10.77;;;4.90;99.90;;;;;;5018533;28;20221;-84
2023/03/06 07:33:57;;;;;;;14.02;10.63;;;4.90;99.90;;;;;;5025101;28;20223;-83
2023/03/06 07:36:24;;;;;;;13.52;11.20;;;5.20;99.90;;;;;;5019775;28;20238;-82
2023/03/06 07:38:51;;;;;;;14.35;9.43;;;5.30;99.90;;;;;;5019112;28;20205;-83
2023/03/06 07:41:18;;;;;;;12.77;10.48;;;5.30;99.90;;;;;;5020155;28;20204;-85
2023/03/06 07:43:50;;;;;;;14.93;12.30;;;5.40;99.90;;;;;;5024106;28;20220;-83
2023/03/06 07:46:18;;;;;;;15.68;12.30;;;5.50;99.90;;;;;;5024009;28;20233;-83
2023/03/06 07:48:46;;;;;;;15.18;10.32;;;5.50;99.90;;;;;;5024859;28;20224;-84
2023/03/06 07:51:19;;;;;;;13.02;10.95;;;5.60;99.90;;;;;;5030216;28;20215;-82
2023/03/06 07:53:49;;;;;;;15.18;10.07;;;6.00;99.90;;;;;;5024888;28;20218;-84
2023/03/06 07:56:15;;;;;;;16.95;10.50;;;6.00;99.90;;;;;;5026537;28;20209;-84
2023/03/06 07:58:46;;;;;;;9.73;8.65;;;6.30;99.90;;;;;;5028482;28;20204;-82
2023/03/06 08:01:16;;;;;;;12.63;10.45;;;6.50;99.90;;;;;;5025838;28;20205;-82
2023/03/06 08:03:44;;;;;;;18.95;12.15;;;6.90;99.90;;;;;;5022752;28;20491;-84
2023/03/06 08:06:23;;;;;;;15.43;13.40;;;7.10;99.90;;;;;;5027189;28;20232;-82
2023/03/06 08:08:52;;;;;;;11.77;10.45;;;7.20;99.90;;;;;;5014864;28;20203;-82
2023/03/06 08:11:21;;;;;;;15.20;11.32;;;7.50;99.90;;;;;;5025696;28;20247;-81
2023/03/06 08:13:51;;;;;;;13.90;10.00;;;7.10;99.90;;;;;;5026420;28;20200;-82
2023/03/06 08:16:27;;;;;;;12.65;10.20;;;7.00;99.90;;;;;;5041900;28;20196;-82
2023/03/06 08:18:55;;;;;;;10.70;9.60;;;7.10;99.90;;;;;;5035384;28;20223;-82
2023/03/06 08:21:24;;;;;;;13.40;11.50;;;7.20;99.90;;;;;;5029739;28;20212;-81
2023/03/06 08:23:52;;;;;;;13.93;11.68;;;7.20;99.90;;;;;;5037466;28;20211;-84
2023/03/06 08:26:30;;;;;;;14.60;10.50;;;7.40;99.90;;;;;;5031777;28;20256;-82
2023/03/06 08:28:59;;;;;;;11.20;9.93;;;7.20;99.90;;;;;;5019614;28;20205;-83
2023/03/06 08:31:30;;;;;;;11.45;10.30;;;7.20;99.90;;;;;;5023249;28;20209;-83
2023/03/06 08:34:01;;;;;;;13.27;10.70;;;7.50;99.90;;;;;;5024331;28;20537;-82
2023/03/06 08:36:29;;;;;;;13.55;10.75;;;7.70;99.90;;;;;;5032765;28;20485;-83
2023/03/06 08:38:57;;;;;;;17.27;11.40;;;7.80;99.90;;;;;;5012302;28;20211;-81
2023/03/06 08:41:25;;;;;;;15.27;11.45;;;8.00;99.90;;;;;;5027587;28;20211;-81
2023/03/06 08:43:52;;;;;;;12.68;10.43;;;8.40;99.90;;;;;;5027262;28;20196;-82
2023/03/06 08:46:22;;;;;;;14.63;10.70;;;8.70;99.90;;;;;;5031546;28;20239;-82
2023/03/06 08:48:50;;;;;;;11.63;10.20;;;8.80;99.90;;;;;;5017375;28;20222;-81
2023/03/06 08:51:17;;;;;;;14.95;10.98;;;8.50;99.90;;;;;;5017699;28;20214;-81
2023/03/06 08:53:45;;;;;;;11.20;9.20;;;8.50;99.90;;;;;;5015409;28;20241;-83
2023/03/06 08:56:20;;;;;;;11.55;9.35;;;8.80;99.90;;;;;;5028365;28;20222;-82
2023/03/06 08:58:48;;;;;;;18.65;10.73;;;9.10;99.90;;;;;;5009843;28;20203;-82
2023/03/06 09:01:21;;;;;;;10.38;9.35;;;9.30;99.90;;;;;;5022323;28;20204;-83
2023/03/06 09:03:49;;;;;;;10.85;9.75;;;8.90;99.90;;;;;;5022110;28;20212;-82
2023/03/06 09:06:16;;;;;;;11.70;9.10;;;9.30;99.90;;;;;;5038409;28;20247;-81
2023/03/06 09:08:43;;;;;;;16.25;10.20;;;9.40;99.90;;;;;;5022965;28;20200;-83
2023/03/06 09:11:12;;;;;;;14.70;9.50;;;9.50;99.90;;;;;;5043391;28;20222;-82
2023/03/06 09:13:40;;;;;;;14.05;10.20;;;9.40;99.90;;;;;;5036444;28;20244;-82
2023/03/06 09:16:08;;;;;;;14.98;10.38;;;9.40;99.90;;;;;;5023938;28;20216;-81
2023/03/06 09:18:35;;;;;;;10.20;9.10;;;9.30;99.90;;;;;;5027300;28;20212;-83
2023/03/06 09:21:04;;;;;;;20.95;12.13;;;9.70;99.90;;;;;;5033878;28;20216;-82
2023/03/06 09:23:31;;;;;;;15.57;10.93;;;9.90;99.90;;;;;;5024797;28;20204;-81
2023/03/06 09:25:59;;;;;;;14.20;10.43;;;10.00;99.90;;;;;;5027915;28;20248;-80
2023/03/06 09:28:27;;;;;;;11.60;9.07;;;9.70;99.90;;;;;;5026197;28;20243;-82
2023/03/06 09:30:54;;;;;;;14.55;9.85;;;9.50;99.90;;;;;;5023919;28;20212;-82
2023/03/06 09:33:22;;;;;;;8.80;7.90;;;9.40;99.90;;;;;;5020741;28;20240;-80
2023/03/06 09:35:56;;;;;;;16.05;9.77;;;9.10;99.90;;;;;;5021089;28;20204;-80
2023/03/06 09:38:26;;;;;;;8.98;7.40;;;9.00;99.90;;;;;;5029171;28;20269;-81
2023/03/06 09:41:05;;;;;;;11.00;8.32;;;9.00;99.90;;;;;;5030637;28;20212;-81
2023/03/06 09:43:45;;;;;;;18.45;8.45;;;8.90;99.90;;;;;;5028432;28;20202;-83
2023/03/06 09:46:23;;;;;;;10.50;9.32;;;8.70;99.90;;;;;;5019170;28;20239;-82
2023/03/06 09:49:01;;;;;;;9.13;8.07;;;8.70;99.90;;;;;;5027969;28;20304;-81
2023/03/06 09:51:55;;;;;;;16.98;8.45;;;8.50;99.90;;;;;;5027772;28;20211;-80
2023/03/06 09:54:33;;;;;;;10.07;9.07;;;8.50;99.90;;;;;;5025050;28;20582;-80
2023/03/06 09:57:01;;;;;;;11.27;9.55;;;8.60;99.90;;;;;;5029390;28;20426;-82
2023/03/06 09:59:29;;;;;;;10.38;9.38;;;8.70;99.90;;;;;;5025738;28;20210;-82
2023/03/06 10:02:11;;;;;;;10.18;9.00;;;8.90;99.90;;;;;;5018085;28;20212;-81
2023/03/06 10:04:44;;;;;;;12.85;8.77;;;8.90;99.90;;;;;;5025834;28;20204;-81
2023/03/06 10:07:26;;;;;;;12.75;10.25;;;9.00;99.90;;;;;;5023397;28;20237;-81
2023/03/06 10:09:58;;;;;;;10.60;9.13;;;9.10;99.90;;;;;;5026344;28;20396;-80
2023/03/06 10:12:31;;;;;;;10.70;8.63;;;9.10;99.90;;;;;;5030123;28;20203;-81
2023/03/06 10:15:16;;;;;;;12.02;8.32;;;9.00;99.90;;;;;;5026048;28;20232;-82
2023/03/06 10:17:44;;;;;;;10.95;8.52;;;9.00;99.90;;;;;;5031766;28;20204;-80
2023/03/06 10:20:22;;;;;;;12.50;8.50;;;9.00;99.90;;;;;;5027413;28;20266;-81
2023/03/06 10:22:55;;;;;;;13.73;9.00;;;8.80;99.90;;;;;;5032352;28;20204;-82
2023/03/06 10:25:37;;;;;;;9.93;8.13;;;8.90;99.90;;;;;;5018709;28;20231;-82
2023/03/06 10:28:20;;;;;;;10.20;8.50;;;9.30;99.90;;;;;;5026384;28;20232;-81
2023/03/06 10:30:59;;;;;;;12.75;9.70;;;9.30;99.90;;;;;;5010693;28;20498;-81
2023/03/06 10:33:43;;;;;;;8.98;8.07;;;9.20;99.90;;;;;;5025337;28;20203;-81
2023/03/06 10:36:16;;;;;;;12.88;9.55;;;9.30;99.90;;;;;;5028955;28;20217;-84
2023/03/06 10:38:44;;;;;;;12.70;8.02;;;9.30;99.90;;;;;;5027834;28;20227;-82
2023/03/06 10:41:11;;;;;;;11.00;9.25;;;9.40;99.90;;;;;;5027712;28;20208;-80
2023/03/06 10:43:43;;;;;;;14.00;8.57;;;9.40;99.90;;;;;;5018716;28;20244;-82
2023/03/06 10:46:13;;;;;;;11.35;9.65;;;9.30;99.90;;;;;;5023239;28;20215;-81
2023/03/06 10:48:41;;;;;;;8.90;7.80;;;9.30;99.90;;;;;;5024416;28;20226;-80
2023/03/06 10:51:09;;;;;;;10.23;9.00;;;9.20;99.90;;;;;;5018002;28;20204;-82
2023/03/06 10:54:13;;;;;;;12.88;8.57;;;9.20;99.90;;;;;;5025301;28;20208;-81
2023/03/06 10:56:42;;;;;;;12.60;8.98;;;9.20;99.90;;;;;;5018403;28;20216;-81
2023/03/06 10:59:14;;;;;;;11.38;9.45;;;9.20;99.90;;;;;;5027877;28;20496;-81
2023/03/06 11:01:43;;;;;;;9.50;8.23;;;9.30;99.90;;;;;;5029464;28;20255;-81
2023/03/06 11:04:13;;;;;;;22.05;8.65;;;9.50;99.90;;;;;;5018024;28;20212;-82
2023/03/06 11:06:40;;;;;;;17.13;9.10;;;9.30;99.90;;;;;;5013845;28;20506;-82
2023/03/06 11:09:25;;;;;;;10.90;9.80;;;9.30;99.90;;;;;;5019219;28;20203;-80
2023/03/06 11:12:12;;;;;;;15.13;10.02;;;9.40;99.90;;;;;;5022354;28;20404;-81
2023/03/06 11:14:39;;;;;;;11.35;9.45;;;9.40;99.90;;;;;;5019768;28;20255;-81
2023/03/06 11:17:26;;;;;;;11.23;8.70;;;9.60;99.90;;;;;;5021734;28;20535;-83
2023/03/06 11:20:26;;;;;;;8.35;7.55;;;9.60;99.90;;;;;;5028090;28;20236;-81
2023/03/06 11:23:00;;;;;;;10.65;8.30;;;9.00;99.90;;;;;;4974778;28;20207;-82
2023/03/06 11:25:55;;;;;;;9.23;7.90;;;8.70;99.90;;;;;;5026424;28;20258;-82
2023/03/06 11:28:24;;;;;;;7.93;7.13;;;8.80;99.90;;;;;;5021869;28;20220;-82
2023/03/06 11:31:12;;;;;;;13.40;8.68;;;8.90;99.90;;;;;;5028177;28;20216;-80
2023/03/06 11:33:50;;;;;;;16.40;8.50;;;9.00;99.90;;;;;;5028255;28;20207;-80
2023/03/06 11:36:28;;;;;;;9.18;7.47;;;8.90;99.90;;;;;;5032480;28;20200;-81
2023/03/06 11:38:55;;;;;;;9.23;8.02;;;9.00;99.90;;;;;;5020112;28;20211;-81
2023/03/06 11:41:31;;;;;;;12.00;9.35;;;9.30;99.90;;;;;;5021224;28;20476;-82
2023/03/06 11:44:23;;;;;;;11.05;8.25;;;9.70;99.90;;;;;;5024532;28;20208;-82
2023/03/06 11:47:01;;;;;;;11.10;8.75;;;9.60;99.90;;;;;;5019696;28;20224;-81
2023/03/06 11:49:33;;;;;;;9.73;8.23;;;9.50;99.90;;;;;;5026162;28;20390;-81
2023/03/06 11:52:07;;;;;;;9.48;6.75;;;9.70;99.90;;;;;;5029832;28;20208;-81
2023/03/06 11:54:35;;;;;;;13.07;9.15;;;9.60;99.90;;;;;;5027638;28;20250;-81
2023/03/06 11:57:16;;;;;;;11.35;8.27;;;9.40;99.90;;;;;;5029279;28;20480;-82
2023/03/06 12:00:00;;;;;;;16.05;9.57;;;9.40;99.90;;;;;;5031449;28;20197;-81
2023/03/06 12:03:26;;;;;;;8.43;7.40;;;9.60;99.90;;;;;;5029287;28;20204;-80
2023/03/06 12:05:59;;;;;;;11.85;10.05;;;9.70;99.90;;;;;;4989904;28;20205;-81
2023/03/06 12:08:50;;;;;;;13.45;8.50;;;9.90;99.90;;;;;;5000157;28;20233;-80
2023/03/06 12:11:31;;;;;;;11.30;9.10;;;10.00;99.90;;;;;;5010281;28;20485;-81
2023/03/06 12:14:24;;;;;;;19.15;9.27;;;9.80;99.90;;;;;;5030634;28;20200;-82
2023/03/06 12:17:24;;;;;;;9.98;7.88;;;9.90;99.90;;;;;;5032957;28;20286;-80
2023/03/06 12:19:57;;;;;;;9.15;6.65;;;9.80;99.90;;;;;;5017064;28;20259;-80
2023/03/06 12:22:49;;;;;;;10.23;8.15;;;10.10;99.90;;;;;;5018164;28;20209;-82
2023/03/06 12:25:43;;;;;;;16.70;6.93;;;10.10;99.90;;;;;;5022970;28;20232;-81
2023/03/06 12:28:21;;;;;;;12.75;8.02;;;10.10;99.90;;;;;;5023933;28;20266;-80
2023/03/06 12:31:02;;;;;;;10.43;8.50;;;9.90;99.90;;;;;;5019446;28;20620;-83
2023/03/06 12:33:44;;;;;;;11.77;8.60;;;9.80;99.90;;;;;;5032822;28;20238;-80
2023/03/06 12:36:28;;;;;;;10.32;8.77;;;9.60;99.90;;;;;;5009916;28;20212;-80
2023/03/06 12:39:04;;;;;;;14.30;8.60;;;9.60;99.90;;;;;;5015601;28;20196;-82
2023/03/06 12:41:49;;;;;;;13.15;9.30;;;9.40;99.90;;;;;;5020044;28;20570;-81
2023/03/06 12:44:35;;;;;;;8.30;7.50;;;9.30;99.90;;;;;;5010998;28;20212;-80
2023/03/06 12:47:08;;;;;;;8.90;7.25;;;9.20;99.90;;;;;;5016349;28;20255;-81
2023/03/06 12:49:41;;;;;;;8.85;7.60;;;9.10;99.90;;;;;;5030940;28;20509;-81
2023/03/06 12:52:29;;;;;;;11.20;8.18;;;9.10;99.90;;;;;;5019005;28;20382;-80
2023/03/06 12:54:58;;;;;;;8.48;7.28;;;9.10;99.90;;;;;;5030991;28;20267;-81
2023/03/06 12:57:26;;;;;;;10.18;7.80;;;9.00;99.90;;;;;;5021939;28;20216;-81
2023/03/06 12:59:54;;;;;;;10.15;7.75;;;8.90;99.90;;;;;;5024102;28;20208;-82
2023/03/06 13:02:27;;;;;;;16.40;9.70;;;8.90;99.90;;;;;;5025604;28;20258;-82